sensor_id;sensor_type;location;lat;lon;timestamp;P1;durP1;ratioP1;P2;durP2;ratioP2
22622;SDS011;11478;51.094;7.030;2023-11-19T00:00:05;3.75;;;1.90;;
22622;SDS011;11478;51.094;7.030;2023-11-19T00:02:38;2.22;;;1.80;;
22622;SDS011;11478;51.094;7.030;2023-11-19T00:05:04;7.40;;;1.80;;
22622;SDS011;11478;51.094;7.030;2023-11-19T00:10:14;5.85;;;2.22;;
22622;SDS011;11478;51.094;7.030;2023-11-19T00:12:45;3.30;;;1.60;;
22622;SDS011;11478;51.094;7.030;2023-11-19T00:15:17;2.75;;;1.80;;
22622;SDS011;11478;51.094;7.030;2023-11-19T00:17:47;1.88;;;1.67;;
22622;SDS011;11478;51.094;7.030;2023-11-19T00:20:14;3.40;;;1.60;;
22622;SDS011;11478;51.094;7.030;2023-11-19T00:22:41;3.00;;;1.77;;
22622;SDS011;11478;51.094;7.030;2023-11-19T00:25:08;2.78;;;1.45;;
22622;SDS011;11478;51.094;7.030;2023-11-19T00:27:34;1.83;;;1.65;;
22622;SDS011;11478;51.094;7.030;2023-11-19T00:30:06;3.70;;;1.70;;
22622;SDS011;11478;51.094;7.030;2023-11-19T00:32:38;3.08;;;1.95;;
22622;SDS011;11478;51.094;7.030;2023-11-19T00:35:07;3.45;;;1.80;;
22622;SDS011;11478;51.094;7.030;2023-11-19T00:37:42;5.15;;;1.85;;
22622;SDS011;11478;51.094;7.030;2023-11-19T00:40:08;2.30;;;1.63;;
22622;SDS011;11478;51.094;7.030;2023-11-19T00:45:12;3.28;;;1.60;;
22622;SDS011;11478;51.094;7.030;2023-11-19T00:47:44;4.32;;;1.92;;
22622;SDS011;11478;51.094;7.030;2023-11-19T00:50:10;6.00;;;1.80;;
22622;SDS011;11478;51.094;7.030;2023-11-19T00:52:39;11.52;;;2.35;;
22622;SDS011;11478;51.094;7.030;2023-11-19T00:55:05;3.95;;;1.77;;
22622;SDS011;11478;51.094;7.030;2023-11-19T00:57:33;3.38;;;2.03;;
22622;SDS011;11478;51.094;7.030;2023-11-19T01:00:00;5.65;;;2.60;;
22622;SDS011;11478;51.094;7.030;2023-11-19T01:02:31;5.40;;;2.20;;
22622;SDS011;11478;51.094;7.030;2023-11-19T01:04:59;5.50;;;2.40;;
22622;SDS011;11478;51.094;7.030;2023-11-19T01:10:30;4.57;;;2.30;;
22622;SDS011;11478;51.094;7.030;2023-11-19T01:15:32;4.75;;;2.30;;
22622;SDS011;11478;51.094;7.030;2023-11-19T01:17:58;4.35;;;2.30;;
22622;SDS011;11478;51.094;7.030;2023-11-19T01:20:33;5.80;;;2.20;;
22622;SDS011;11478;51.094;7.030;2023-11-19T01:22:59;13.25;;;2.50;;
22622;SDS011;11478;51.094;7.030;2023-11-19T01:25:25;6.13;;;2.50;;
22622;SDS011;11478;51.094;7.030;2023-11-19T01:27:51;9.48;;;2.75;;
22622;SDS011;11478;51.094;7.030;2023-11-19T01:30:23;7.70;;;2.72;;
22622;SDS011;11478;51.094;7.030;2023-11-19T01:32:49;10.90;;;2.53;;
22622;SDS011;11478;51.094;7.030;2023-11-19T01:35:17;6.25;;;2.70;;
22622;SDS011;11478;51.094;7.030;2023-11-19T01:37:42;3.63;;;2.38;;
22622;SDS011;11478;51.094;7.030;2023-11-19T01:40:21;7.40;;;2.55;;
22622;SDS011;11478;51.094;7.030;2023-11-19T01:42:47;8.10;;;2.72;;
22622;SDS011;11478;51.094;7.030;2023-11-19T01:45:21;5.40;;;2.38;;
22622;SDS011;11478;51.094;7.030;2023-11-19T01:47:54;19.70;;;3.22;;
22622;SDS011;11478;51.094;7.030;2023-11-19T01:50:21;10.02;;;3.00;;
22622;SDS011;11478;51.094;7.030;2023-11-19T01:52:47;6.95;;;2.90;;
22622;SDS011;11478;51.094;7.030;2023-11-19T01:55:17;5.05;;;2.60;;
22622;SDS011;11478;51.094;7.030;2023-11-19T01:57:43;5.72;;;2.67;;
22622;SDS011;11478;51.094;7.030;2023-11-19T02:00:09;12.35;;;2.80;;
22622;SDS011;11478;51.094;7.030;2023-11-19T02:02:37;90.00;;;4.18;;
22622;SDS011;11478;51.094;7.030;2023-11-19T02:05:05;12.25;;;3.00;;
22622;SDS011;11478;51.094;7.030;2023-11-19T02:07:32;30.33;;;3.60;;
22622;SDS011;11478;51.094;7.030;2023-11-19T02:10:01;9.98;;;3.00;;
22622;SDS011;11478;51.094;7.030;2023-11-19T02:14:59;5.43;;;3.00;;
22622;SDS011;11478;51.094;7.030;2023-11-19T02:17:29;11.75;;;3.63;;
22622;SDS011;11478;51.094;7.030;2023-11-19T02:20:03;6.63;;;3.03;;
22622;SDS011;11478;51.094;7.030;2023-11-19T02:22:41;28.90;;;3.78;;
22622;SDS011;11478;51.094;7.030;2023-11-19T02:25:24;18.40;;;3.60;;
22622;SDS011;11478;51.094;7.030;2023-11-19T02:27:58;4.75;;;3.13;;
22622;SDS011;11478;51.094;7.030;2023-11-19T02:33:06;14.05;;;3.50;;
22622;SDS011;11478;51.094;7.030;2023-11-19T02:35:35;4.53;;;3.13;;
22622;SDS011;11478;51.094;7.030;2023-11-19T02:38:00;10.95;;;3.28;;
22622;SDS011;11478;51.094;7.030;2023-11-19T02:40:29;13.38;;;3.85;;
22622;SDS011;11478;51.094;7.030;2023-11-19T02:42:55;9.93;;;3.50;;
22622;SDS011;11478;51.094;7.030;2023-11-19T02:45:23;5.85;;;3.33;;
22622;SDS011;11478;51.094;7.030;2023-11-19T02:47:50;4.03;;;2.78;;
22622;SDS011;11478;51.094;7.030;2023-11-19T02:50:19;14.40;;;3.97;;
22622;SDS011;11478;51.094;7.030;2023-11-19T02:52:52;12.25;;;3.88;;
22622;SDS011;11478;51.094;7.030;2023-11-19T02:55:22;5.68;;;3.00;;
22622;SDS011;11478;51.094;7.030;2023-11-19T02:57:49;6.97;;;3.42;;
22622;SDS011;11478;51.094;7.030;2023-11-19T03:00:19;6.88;;;3.40;;
22622;SDS011;11478;51.094;7.030;2023-11-19T03:02:57;10.30;;;3.42;;
22622;SDS011;11478;51.094;7.030;2023-11-19T03:05:35;12.05;;;4.63;;
22622;SDS011;11478;51.094;7.030;2023-11-19T03:10:31;12.15;;;4.65;;
22622;SDS011;11478;51.094;7.030;2023-11-19T03:12:56;9.68;;;4.10;;
22622;SDS011;11478;51.094;7.030;2023-11-19T03:15:24;18.98;;;5.10;;
22622;SDS011;11478;51.094;7.030;2023-11-19T03:17:50;8.38;;;4.72;;
22622;SDS011;11478;51.094;7.030;2023-11-19T03:20:17;6.82;;;4.32;;
22622;SDS011;11478;51.094;7.030;2023-11-19T03:22:42;26.88;;;5.85;;
22622;SDS011;11478;51.094;7.030;2023-11-19T03:25:09;10.85;;;4.30;;
22622;SDS011;11478;51.094;7.030;2023-11-19T03:27:36;10.52;;;4.28;;
22622;SDS011;11478;51.094;7.030;2023-11-19T03:30:09;16.65;;;4.85;;
22622;SDS011;11478;51.094;7.030;2023-11-19T03:32:35;23.20;;;5.40;;
22622;SDS011;11478;51.094;7.030;2023-11-19T03:35:04;22.55;;;5.47;;
22622;SDS011;11478;51.094;7.030;2023-11-19T03:37:35;9.43;;;4.53;;
22622;SDS011;11478;51.094;7.030;2023-11-19T03:40:01;12.65;;;4.90;;
22622;SDS011;11478;51.094;7.030;2023-11-19T03:42:35;22.25;;;5.68;;
22622;SDS011;11478;51.094;7.030;2023-11-19T03:45:01;14.20;;;4.70;;
22622;SDS011;11478;51.094;7.030;2023-11-19T03:47:29;15.15;;;5.13;;
22622;SDS011;11478;51.094;7.030;2023-11-19T03:49:54;22.38;;;5.45;;
22622;SDS011;11478;51.094;7.030;2023-11-19T03:52:21;10.27;;;4.18;;
22622;SDS011;11478;51.094;7.030;2023-11-19T03:54:47;16.27;;;5.22;;
22622;SDS011;11478;51.094;7.030;2023-11-19T03:57:19;22.40;;;5.43;;
22622;SDS011;11478;51.094;7.030;2023-11-19T03:59:45;21.73;;;5.30;;
22622;SDS011;11478;51.094;7.030;2023-11-19T04:02:17;28.80;;;5.47;;
22622;SDS011;11478;51.094;7.030;2023-11-19T04:04:42;22.48;;;5.57;;
22622;SDS011;11478;51.094;7.030;2023-11-19T04:07:09;26.10;;;6.68;;
22622;SDS011;11478;51.094;7.030;2023-11-19T04:09:35;34.42;;;6.13;;
22622;SDS011;11478;51.094;7.030;2023-11-19T04:12:09;37.95;;;6.80;;
22622;SDS011;11478;51.094;7.030;2023-11-19T04:14:36;37.58;;;6.28;;
22622;SDS011;11478;51.094;7.030;2023-11-19T04:17:14;39.13;;;6.55;;
22622;SDS011;11478;51.094;7.030;2023-11-19T04:19:39;41.33;;;6.07;;
22622;SDS011;11478;51.094;7.030;2023-11-19T04:22:13;35.83;;;6.45;;
22622;SDS011;11478;51.094;7.030;2023-11-19T04:24:39;37.03;;;6.50;;
22622;SDS011;11478;51.094;7.030;2023-11-19T04:27:06;34.65;;;6.15;;
22622;SDS011;11478;51.094;7.030;2023-11-19T04:29:31;35.88;;;5.60;;
22622;SDS011;11478;51.094;7.030;2023-11-19T04:31:57;32.17;;;5.72;;
22622;SDS011;11478;51.094;7.030;2023-11-19T04:34:25;61.80;;;6.32;;
22622;SDS011;11478;51.094;7.030;2023-11-19T04:36:51;25.95;;;4.75;;
22622;SDS011;11478;51.094;7.030;2023-11-19T04:39:17;37.15;;;5.10;;
22622;SDS011;11478;51.094;7.030;2023-11-19T04:44:19;30.30;;;5.70;;
22622;SDS011;11478;51.094;7.030;2023-11-19T04:46:45;34.70;;;5.90;;
22622;SDS011;11478;51.094;7.030;2023-11-19T04:49:11;24.98;;;5.30;;
22622;SDS011;11478;51.094;7.030;2023-11-19T04:51:43;26.58;;;5.80;;
22622;SDS011;11478;51.094;7.030;2023-11-19T04:54:12;35.92;;;6.10;;
22622;SDS011;11478;51.094;7.030;2023-11-19T04:56:40;37.17;;;5.80;;
22622;SDS011;11478;51.094;7.030;2023-11-19T04:59:10;36.33;;;6.03;;
22622;SDS011;11478;51.094;7.030;2023-11-19T05:01:36;33.05;;;5.95;;
22622;SDS011;11478;51.094;7.030;2023-11-19T05:04:01;39.35;;;5.70;;
22622;SDS011;11478;51.094;7.030;2023-11-19T05:06:29;28.10;;;5.70;;
22622;SDS011;11478;51.094;7.030;2023-11-19T05:08:56;39.20;;;7.10;;
22622;SDS011;11478;51.094;7.030;2023-11-19T05:11:23;38.42;;;6.53;;
22622;SDS011;11478;51.094;7.030;2023-11-19T05:13:50;39.53;;;5.90;;
22622;SDS011;11478;51.094;7.030;2023-11-19T05:16:16;32.95;;;5.68;;
22622;SDS011;11478;51.094;7.030;2023-11-19T05:18:43;36.78;;;5.55;;
22622;SDS011;11478;51.094;7.030;2023-11-19T05:21:10;34.47;;;5.25;;
22622;SDS011;11478;51.094;7.030;2023-11-19T05:23:37;37.45;;;6.45;;
22622;SDS011;11478;51.094;7.030;2023-11-19T05:26:04;27.88;;;4.22;;
22622;SDS011;11478;51.094;7.030;2023-11-19T05:28:30;39.17;;;5.30;;
22622;SDS011;11478;51.094;7.030;2023-11-19T05:30:56;39.17;;;5.70;;
22622;SDS011;11478;51.094;7.030;2023-11-19T05:33:28;28.42;;;5.07;;
22622;SDS011;11478;51.094;7.030;2023-11-19T05:35:54;27.33;;;4.50;;
22622;SDS011;11478;51.094;7.030;2023-11-19T05:38:26;21.90;;;4.65;;
22622;SDS011;11478;51.094;7.030;2023-11-19T05:40:52;24.52;;;4.57;;
22622;SDS011;11478;51.094;7.030;2023-11-19T05:43:18;27.02;;;4.78;;
22622;SDS011;11478;51.094;7.030;2023-11-19T05:45:44;32.88;;;5.00;;
22622;SDS011;11478;51.094;7.030;2023-11-19T05:48:20;32.00;;;5.03;;
22622;SDS011;11478;51.094;7.030;2023-11-19T05:50:46;24.73;;;3.90;;
22622;SDS011;11478;51.094;7.030;2023-11-19T05:53:20;30.15;;;4.38;;
22622;SDS011;11478;51.094;7.030;2023-11-19T05:55:46;21.30;;;4.20;;
22622;SDS011;11478;51.094;7.030;2023-11-19T05:58:19;26.97;;;4.60;;
22622;SDS011;11478;51.094;7.030;2023-11-19T06:00:50;31.27;;;5.40;;
22622;SDS011;11478;51.094;7.030;2023-11-19T06:03:16;27.27;;;4.22;;
22622;SDS011;11478;51.094;7.030;2023-11-19T06:05:44;28.10;;;5.13;;
22622;SDS011;11478;51.094;7.030;2023-11-19T06:08:11;27.17;;;4.32;;
22622;SDS011;11478;51.094;7.030;2023-11-19T06:10:38;26.55;;;4.28;;
22622;SDS011;11478;51.094;7.030;2023-11-19T06:13:09;26.88;;;5.22;;
22622;SDS011;11478;51.094;7.030;2023-11-19T06:15:36;25.20;;;4.65;;
22622;SDS011;11478;51.094;7.030;2023-11-19T06:18:02;28.52;;;4.82;;
22622;SDS011;11478;51.094;7.030;2023-11-19T06:20:32;32.83;;;4.78;;
22622;SDS011;11478;51.094;7.030;2023-11-19T06:22:58;37.15;;;8.65;;
22622;SDS011;11478;51.094;7.030;2023-11-19T06:25:25;38.50;;;5.70;;
22622;SDS011;11478;51.094;7.030;2023-11-19T06:27:51;34.72;;;6.60;;
22622;SDS011;11478;51.094;7.030;2023-11-19T06:30:17;32.25;;;5.18;;
22622;SDS011;11478;51.094;7.030;2023-11-19T06:32:53;39.38;;;6.72;;
22622;SDS011;11478;51.094;7.030;2023-11-19T06:35:19;34.15;;;5.70;;
22622;SDS011;11478;51.094;7.030;2023-11-19T06:37:48;31.83;;;5.63;;
22622;SDS011;11478;51.094;7.030;2023-11-19T06:40:13;33.83;;;5.65;;
22622;SDS011;11478;51.094;7.030;2023-11-19T06:42:42;31.65;;;5.18;;
22622;SDS011;11478;51.094;7.030;2023-11-19T06:45:08;41.67;;;5.95;;
22622;SDS011;11478;51.094;7.030;2023-11-19T06:47:34;33.95;;;6.38;;
22622;SDS011;11478;51.094;7.030;2023-11-19T06:50:00;37.80;;;5.55;;
22622;SDS011;11478;51.094;7.030;2023-11-19T06:52:26;32.63;;;5.40;;
22622;SDS011;11478;51.094;7.030;2023-11-19T06:54:52;34.10;;;5.45;;
22622;SDS011;11478;51.094;7.030;2023-11-19T06:57:18;32.90;;;5.85;;
22622;SDS011;11478;51.094;7.030;2023-11-19T06:59:51;46.10;;;8.48;;
22622;SDS011;11478;51.094;7.030;2023-11-19T07:02:17;37.78;;;8.85;;
22622;SDS011;11478;51.094;7.030;2023-11-19T07:04:45;37.17;;;11.93;;
22622;SDS011;11478;51.094;7.030;2023-11-19T07:07:11;39.33;;;8.65;;
22622;SDS011;11478;51.094;7.030;2023-11-19T07:09:36;26.40;;;6.10;;
22622;SDS011;11478;51.094;7.030;2023-11-19T07:12:03;40.60;;;7.60;;
22622;SDS011;11478;51.094;7.030;2023-11-19T07:14:29;35.97;;;7.72;;
22622;SDS011;11478;51.094;7.030;2023-11-19T07:17:05;45.90;;;9.05;;
22622;SDS011;11478;51.094;7.030;2023-11-19T07:19:31;37.50;;;8.02;;
22622;SDS011;11478;51.094;7.030;2023-11-19T07:21:59;36.55;;;8.93;;
22622;SDS011;11478;51.094;7.030;2023-11-19T07:24:24;41.25;;;13.60;;
22622;SDS011;11478;51.094;7.030;2023-11-19T07:29:23;41.30;;;10.30;;
22622;SDS011;11478;51.094;7.030;2023-11-19T07:32:03;34.95;;;6.80;;
22622;SDS011;11478;51.094;7.030;2023-11-19T07:34:30;36.15;;;6.25;;
22622;SDS011;11478;51.094;7.030;2023-11-19T07:39:47;34.15;;;8.45;;
22622;SDS011;11478;51.094;7.030;2023-11-19T07:42:13;42.08;;;8.95;;
22622;SDS011;11478;51.094;7.030;2023-11-19T07:44:43;41.05;;;6.28;;
22622;SDS011;11478;51.094;7.030;2023-11-19T07:47:09;33.13;;;5.90;;
22622;SDS011;11478;51.094;7.030;2023-11-19T07:52:19;28.45;;;5.53;;
22622;SDS011;11478;51.094;7.030;2023-11-19T07:54:54;38.45;;;8.38;;
22622;SDS011;11478;51.094;7.030;2023-11-19T07:57:20;38.50;;;6.50;;
22622;SDS011;11478;51.094;7.030;2023-11-19T08:02:21;35.55;;;6.25;;
22622;SDS011;11478;51.094;7.030;2023-11-19T08:04:58;34.22;;;7.38;;
22622;SDS011;11478;51.094;7.030;2023-11-19T08:07:24;31.50;;;5.38;;
22622;SDS011;11478;51.094;7.030;2023-11-19T08:09:51;34.45;;;6.22;;
22622;SDS011;11478;51.094;7.030;2023-11-19T08:12:17;31.95;;;6.32;;
22622;SDS011;11478;51.094;7.030;2023-11-19T08:14:43;32.97;;;5.72;;
22622;SDS011;11478;51.094;7.030;2023-11-19T08:17:12;42.30;;;6.35;;
22622;SDS011;11478;51.094;7.030;2023-11-19T08:19:38;35.08;;;5.88;;
22622;SDS011;11478;51.094;7.030;2023-11-19T08:22:05;37.70;;;6.50;;
22622;SDS011;11478;51.094;7.030;2023-11-19T08:24:31;27.40;;;5.72;;
22622;SDS011;11478;51.094;7.030;2023-11-19T08:26:58;36.60;;;6.63;;
22622;SDS011;11478;51.094;7.030;2023-11-19T08:29:26;30.95;;;5.30;;
22622;SDS011;11478;51.094;7.030;2023-11-19T08:32:00;30.77;;;6.38;;
22622;SDS011;11478;51.094;7.030;2023-11-19T08:34:27;30.92;;;6.20;;
22622;SDS011;11478;51.094;7.030;2023-11-19T08:36:55;35.30;;;5.72;;
22622;SDS011;11478;51.094;7.030;2023-11-19T08:39:21;36.92;;;5.30;;
22622;SDS011;11478;51.094;7.030;2023-11-19T08:41:47;30.35;;;4.78;;
22622;SDS011;11478;51.094;7.030;2023-11-19T08:44:15;30.15;;;4.97;;
22622;SDS011;11478;51.094;7.030;2023-11-19T08:46:50;32.55;;;5.38;;
22622;SDS011;11478;51.094;7.030;2023-11-19T08:49:21;26.50;;;5.03;;
22622;SDS011;11478;51.094;7.030;2023-11-19T08:51:48;33.92;;;5.65;;
22622;SDS011;11478;51.094;7.030;2023-11-19T08:54:15;34.60;;;5.30;;
22622;SDS011;11478;51.094;7.030;2023-11-19T08:56:41;31.80;;;5.28;;
22622;SDS011;11478;51.094;7.030;2023-11-19T08:59:09;31.98;;;5.25;;
22622;SDS011;11478;51.094;7.030;2023-11-19T09:01:34;30.60;;;5.18;;
22622;SDS011;11478;51.094;7.030;2023-11-19T09:04:02;33.00;;;4.90;;
22622;SDS011;11478;51.094;7.030;2023-11-19T09:06:29;30.75;;;5.00;;
22622;SDS011;11478;51.094;7.030;2023-11-19T09:08:56;27.00;;;4.68;;
22622;SDS011;11478;51.094;7.030;2023-11-19T09:11:25;35.65;;;5.72;;
22622;SDS011;11478;51.094;7.030;2023-11-19T09:13:56;28.92;;;4.82;;
22622;SDS011;11478;51.094;7.030;2023-11-19T09:16:23;39.90;;;6.00;;
22622;SDS011;11478;51.094;7.030;2023-11-19T09:18:49;33.72;;;5.25;;
22622;SDS011;11478;51.094;7.030;2023-11-19T09:21:15;32.60;;;5.68;;
22622;SDS011;11478;51.094;7.030;2023-11-19T09:23:48;33.45;;;5.03;;
22622;SDS011;11478;51.094;7.030;2023-11-19T09:26:14;34.38;;;5.30;;
22622;SDS011;11478;51.094;7.030;2023-11-19T09:28:41;30.33;;;4.75;;
22622;SDS011;11478;51.094;7.030;2023-11-19T09:31:16;39.47;;;6.45;;
22622;SDS011;11478;51.094;7.030;2023-11-19T09:33:43;33.78;;;5.00;;
22622;SDS011;11478;51.094;7.030;2023-11-19T09:36:11;31.48;;;5.55;;
22622;SDS011;11478;51.094;7.030;2023-11-19T09:38:45;31.85;;;5.53;;
22622;SDS011;11478;51.094;7.030;2023-11-19T09:41:11;27.10;;;5.05;;
22622;SDS011;11478;51.094;7.030;2023-11-19T09:43:44;27.73;;;4.88;;
22622;SDS011;11478;51.094;7.030;2023-11-19T09:46:10;30.80;;;5.13;;
22622;SDS011;11478;51.094;7.030;2023-11-19T09:48:43;36.17;;;5.18;;
22622;SDS011;11478;51.094;7.030;2023-11-19T09:51:10;31.65;;;5.78;;
22622;SDS011;11478;51.094;7.030;2023-11-19T09:53:37;32.25;;;5.40;;
22622;SDS011;11478;51.094;7.030;2023-11-19T09:56:03;34.88;;;5.95;;
22622;SDS011;11478;51.094;7.030;2023-11-19T09:58:33;33.85;;;5.35;;
22622;SDS011;11478;51.094;7.030;2023-11-19T10:01:00;27.27;;;5.22;;
22622;SDS011;11478;51.094;7.030;2023-11-19T10:03:32;25.17;;;4.85;;
22622;SDS011;11478;51.094;7.030;2023-11-19T10:06:07;22.48;;;5.07;;
22622;SDS011;11478;51.094;7.030;2023-11-19T10:08:33;30.90;;;5.35;;
22622;SDS011;11478;51.094;7.030;2023-11-19T10:10:59;31.85;;;5.32;;
22622;SDS011;11478;51.094;7.030;2023-11-19T10:13:26;30.67;;;5.43;;
22622;SDS011;11478;51.094;7.030;2023-11-19T10:15:53;28.10;;;5.25;;
22622;SDS011;11478;51.094;7.030;2023-11-19T10:18:26;27.70;;;5.13;;
22622;SDS011;11478;51.094;7.030;2023-11-19T10:20:52;25.85;;;5.15;;
22622;SDS011;11478;51.094;7.030;2023-11-19T10:23:22;30.10;;;5.38;;
22622;SDS011;11478;51.094;7.030;2023-11-19T10:25:47;31.30;;;5.13;;
22622;SDS011;11478;51.094;7.030;2023-11-19T10:28:21;31.02;;;5.53;;
22622;SDS011;11478;51.094;7.030;2023-11-19T10:30:46;28.42;;;5.18;;
22622;SDS011;11478;51.094;7.030;2023-11-19T10:33:15;29.58;;;5.15;;
22622;SDS011;11478;51.094;7.030;2023-11-19T10:38:20;35.50;;;5.90;;
22622;SDS011;11478;51.094;7.030;2023-11-19T10:40:47;29.63;;;5.13;;
22622;SDS011;11478;51.094;7.030;2023-11-19T10:43:14;33.67;;;6.00;;
22622;SDS011;11478;51.094;7.030;2023-11-19T10:45:40;29.77;;;5.88;;
22622;SDS011;11478;51.094;7.030;2023-11-19T10:48:19;33.50;;;5.95;;
22622;SDS011;11478;51.094;7.030;2023-11-19T10:50:48;27.38;;;4.97;;
22622;SDS011;11478;51.094;7.030;2023-11-19T10:56:23;25.10;;;5.27;;
22622;SDS011;11478;51.094;7.030;2023-11-19T10:58:53;29.02;;;5.32;;
22622;SDS011;11478;51.094;7.030;2023-11-19T11:01:20;30.00;;;4.82;;
22622;SDS011;11478;51.094;7.030;2023-11-19T11:03:51;30.65;;;5.20;;
22622;SDS011;11478;51.094;7.030;2023-11-19T11:06:29;27.35;;;4.93;;
22622;SDS011;11478;51.094;7.030;2023-11-19T11:08:55;26.30;;;5.07;;
22622;SDS011;11478;51.094;7.030;2023-11-19T11:11:32;32.35;;;5.80;;
22622;SDS011;11478;51.094;7.030;2023-11-19T11:13:58;25.25;;;4.45;;
22622;SDS011;11478;51.094;7.030;2023-11-19T11:16:27;25.10;;;5.15;;
22622;SDS011;11478;51.094;7.030;2023-11-19T11:18:56;27.85;;;5.10;;
22622;SDS011;11478;51.094;7.030;2023-11-19T11:21:24;31.98;;;5.47;;
22622;SDS011;11478;51.094;7.030;2023-11-19T11:38:26;22.15;;;4.53;;
22622;SDS011;11478;51.094;7.030;2023-11-19T11:43:54;22.48;;;3.92;;
22622;SDS011;11478;51.094;7.030;2023-11-19T11:49:01;26.10;;;4.55;;
22622;SDS011;11478;51.094;7.030;2023-11-19T12:02:17;21.27;;;4.45;;
22622;SDS011;11478;51.094;7.030;2023-11-19T12:04:50;23.00;;;4.05;;
22622;SDS011;11478;51.094;7.030;2023-11-19T12:07:29;22.70;;;3.78;;
22622;SDS011;11478;51.094;7.030;2023-11-19T12:10:13;20.35;;;4.00;;
22622;SDS011;11478;51.094;7.030;2023-11-19T12:12:41;22.20;;;3.80;;
22622;SDS011;11478;51.094;7.030;2023-11-19T12:15:16;22.83;;;4.65;;
22622;SDS011;11478;51.094;7.030;2023-11-19T12:17:49;25.13;;;4.80;;
22622;SDS011;11478;51.094;7.030;2023-11-19T12:20:15;26.05;;;4.43;;
22622;SDS011;11478;51.094;7.030;2023-11-19T12:22:44;21.52;;;4.18;;
22622;SDS011;11478;51.094;7.030;2023-11-19T12:25:15;30.52;;;5.03;;
22622;SDS011;11478;51.094;7.030;2023-11-19T12:27:43;21.40;;;3.92;;
22622;SDS011;11478;51.094;7.030;2023-11-19T12:30:10;22.45;;;4.13;;
22622;SDS011;11478;51.094;7.030;2023-11-19T12:33:08;22.25;;;4.18;;
22622;SDS011;11478;51.094;7.030;2023-11-19T12:35:51;23.52;;;5.13;;
22622;SDS011;11478;51.094;7.030;2023-11-19T12:41:10;24.55;;;4.55;;
22622;SDS011;11478;51.094;7.030;2023-11-19T12:43:41;25.30;;;4.30;;
22622;SDS011;11478;51.094;7.030;2023-11-19T12:46:20;28.42;;;4.93;;
22622;SDS011;11478;51.094;7.030;2023-11-19T12:48:47;22.00;;;4.68;;
22622;SDS011;11478;51.094;7.030;2023-11-19T12:51:14;21.85;;;4.57;;
22622;SDS011;11478;51.094;7.030;2023-11-19T12:53:50;27.63;;;4.68;;
22622;SDS011;11478;51.094;7.030;2023-11-19T12:56:20;19.25;;;4.25;;
22622;SDS011;11478;51.094;7.030;2023-11-19T12:58:48;24.08;;;4.95;;
22622;SDS011;11478;51.094;7.030;2023-11-19T13:01:15;22.08;;;4.50;;
22622;SDS011;11478;51.094;7.030;2023-11-19T13:03:48;22.95;;;4.50;;
22622;SDS011;11478;51.094;7.030;2023-11-19T13:06:15;22.17;;;4.53;;
22622;SDS011;11478;51.094;7.030;2023-11-19T13:08:43;26.50;;;5.72;;
22622;SDS011;11478;51.094;7.030;2023-11-19T13:11:11;25.50;;;4.47;;
22622;SDS011;11478;51.094;7.030;2023-11-19T13:13:54;22.58;;;4.30;;
22622;SDS011;11478;51.094;7.030;2023-11-19T13:16:29;21.05;;;4.25;;
22622;SDS011;11478;51.094;7.030;2023-11-19T13:18:56;24.30;;;4.03;;
22622;SDS011;11478;51.094;7.030;2023-11-19T13:21:30;20.33;;;3.90;;
22622;SDS011;11478;51.094;7.030;2023-11-19T13:23:59;20.40;;;3.50;;
22622;SDS011;11478;51.094;7.030;2023-11-19T13:26:28;19.17;;;3.70;;
22622;SDS011;11478;51.094;7.030;2023-11-19T13:28:54;24.23;;;3.78;;
22622;SDS011;11478;51.094;7.030;2023-11-19T13:31:28;22.00;;;4.20;;
22622;SDS011;11478;51.094;7.030;2023-11-19T13:36:20;14.43;;;3.05;;
22622;SDS011;11478;51.094;7.030;2023-11-19T13:38:46;24.35;;;4.10;;
22622;SDS011;11478;51.094;7.030;2023-11-19T13:43:40;21.63;;;3.35;;
22622;SDS011;11478;51.094;7.030;2023-11-19T13:46:06;24.52;;;5.18;;
22622;SDS011;11478;51.094;7.030;2023-11-19T13:48:35;18.60;;;3.53;;
22622;SDS011;11478;51.094;7.030;2023-11-19T13:51:01;27.38;;;4.05;;
22622;SDS011;11478;51.094;7.030;2023-11-19T13:53:27;25.20;;;4.38;;
22622;SDS011;11478;51.094;7.030;2023-11-19T13:55:54;19.67;;;3.72;;
22622;SDS011;11478;51.094;7.030;2023-11-19T13:58:20;25.13;;;4.07;;
22622;SDS011;11478;51.094;7.030;2023-11-19T14:00:59;21.73;;;3.78;;
22622;SDS011;11478;51.094;7.030;2023-11-19T14:03:24;24.73;;;4.93;;
22622;SDS011;11478;51.094;7.030;2023-11-19T14:08:20;23.23;;;5.15;;
22622;SDS011;11478;51.094;7.030;2023-11-19T14:10:47;32.50;;;10.25;;
22622;SDS011;11478;51.094;7.030;2023-11-19T14:13:13;25.17;;;6.95;;
22622;SDS011;11478;51.094;7.030;2023-11-19T14:15:40;26.20;;;4.95;;
22622;SDS011;11478;51.094;7.030;2023-11-19T14:18:07;24.73;;;4.65;;
22622;SDS011;11478;51.094;7.030;2023-11-19T14:20:33;32.72;;;6.72;;
22622;SDS011;11478;51.094;7.030;2023-11-19T14:23:02;23.25;;;6.13;;
22622;SDS011;11478;51.094;7.030;2023-11-19T14:25:27;32.70;;;10.90;;
22622;SDS011;11478;51.094;7.030;2023-11-19T14:27:58;25.25;;;6.28;;
22622;SDS011;11478;51.094;7.030;2023-11-19T14:30:24;24.08;;;5.13;;
22622;SDS011;11478;51.094;7.030;2023-11-19T14:32:56;25.05;;;5.53;;
22622;SDS011;11478;51.094;7.030;2023-11-19T14:35:29;28.95;;;5.60;;
22622;SDS011;11478;51.094;7.030;2023-11-19T14:38:40;23.40;;;4.50;;
22622;SDS011;11478;51.094;7.030;2023-11-19T14:41:09;25.90;;;4.47;;
22622;SDS011;11478;51.094;7.030;2023-11-19T14:43:38;27.52;;;4.72;;
22622;SDS011;11478;51.094;7.030;2023-11-19T14:46:04;24.33;;;5.25;;
22622;SDS011;11478;51.094;7.030;2023-11-19T14:48:34;29.35;;;5.25;;
22622;SDS011;11478;51.094;7.030;2023-11-19T14:51:09;24.52;;;5.32;;
22622;SDS011;11478;51.094;7.030;2023-11-19T14:53:35;26.88;;;5.32;;
22622;SDS011;11478;51.094;7.030;2023-11-19T14:56:04;20.45;;;5.00;;
22622;SDS011;11478;51.094;7.030;2023-11-19T14:58:32;28.05;;;5.30;;
22622;SDS011;11478;51.094;7.030;2023-11-19T15:01:05;23.13;;;5.05;;
22622;SDS011;11478;51.094;7.030;2023-11-19T15:03:38;25.25;;;4.05;;
22622;SDS011;11478;51.094;7.030;2023-11-19T15:09:05;22.27;;;3.72;;
22622;SDS011;11478;51.094;7.030;2023-11-19T15:11:32;24.42;;;4.72;;
22622;SDS011;11478;51.094;7.030;2023-11-19T15:13:58;26.70;;;4.82;;
22622;SDS011;11478;51.094;7.030;2023-11-19T15:16:28;23.90;;;6.35;;
22622;SDS011;11478;51.094;7.030;2023-11-19T15:24:09;39.63;;;13.27;;
22622;SDS011;11478;51.094;7.030;2023-11-19T15:26:36;29.75;;;6.13;;
22622;SDS011;11478;51.094;7.030;2023-11-19T15:29:03;28.00;;;4.55;;
22622;SDS011;11478;51.094;7.030;2023-11-19T15:31:30;25.55;;;5.32;;
22622;SDS011;11478;51.094;7.030;2023-11-19T15:34:01;20.65;;;5.25;;
22622;SDS011;11478;51.094;7.030;2023-11-19T15:36:27;29.48;;;5.00;;
22622;SDS011;11478;51.094;7.030;2023-11-19T15:38:55;25.33;;;5.80;;
22622;SDS011;11478;51.094;7.030;2023-11-19T15:41:21;26.80;;;5.00;;
22622;SDS011;11478;51.094;7.030;2023-11-19T15:46:36;31.20;;;5.30;;
22622;SDS011;11478;51.094;7.030;2023-11-19T15:49:06;34.58;;;7.22;;
22622;SDS011;11478;51.094;7.030;2023-11-19T15:51:32;29.65;;;5.82;;
22622;SDS011;11478;51.094;7.030;2023-11-19T15:56:41;23.45;;;6.30;;
22622;SDS011;11478;51.094;7.030;2023-11-19T15:59:06;33.35;;;7.95;;
22622;SDS011;11478;51.094;7.030;2023-11-19T16:01:33;26.92;;;5.63;;
22622;SDS011;11478;51.094;7.030;2023-11-19T16:04:01;24.77;;;5.85;;
22622;SDS011;11478;51.094;7.030;2023-11-19T16:06:27;37.53;;;7.63;;
22622;SDS011;11478;51.094;7.030;2023-11-19T16:09:02;26.50;;;5.22;;
22622;SDS011;11478;51.094;7.030;2023-11-19T16:11:29;25.33;;;4.32;;
22622;SDS011;11478;51.094;7.030;2023-11-19T16:13:55;23.95;;;6.60;;
22622;SDS011;11478;51.094;7.030;2023-11-19T16:16:20;22.52;;;4.68;;